Time;durP1;ratioP1;P1;durP2;ratioP2;P2;SDS_P1;SDS_P2;PMS_P1;PMS_P2;Temp;Humidity;BMP_temperature;BMP_pressure;BME280_temperature;BME280_humidity;BME280_pressure;Samples;Min_cycle;Max_cycle;Signal;HPM_P1;HPM_P2
2023/01/20 16:42:43;;;;;;;;;;;;;;;7.69;48.06;102150.47;6181828;22;20008;-86
2023/01/20 16:45:21;;;;;;;;;;;;;;;7.66;48.26;102151.69;6205862;23;19920;-85
2023/01/20 16:57:55;;;;;;;;;;;;;;;;;;;;;
2023/01/20 17:19:19;;;;;;;;;;;;;;;;;;;;;
2023/01/20 18:29:34;;;;;;;;;;;;;;;;;;;;;
2023/01/20 18:32:45;;;;;;;;;;;;;;;;;;;;;
2023/01/20 18:39:35;;;;;;;;;;;;;;;;;;;;;
2023/01/20 18:47:48;;;;;;;;;;;;;;;7.36;48.09;102304.84;5987958;23;19985;-85
2023/01/20 18:50:15;;;;;;;;;;;;;;;7.35;48.28;102306.69;6165200;23;19936;-85
2023/01/20 18:52:40;;;;;;;;;;;;;;;7.34;48.00;102307.72;6200169;23;19939;-84
2023/01/20 18:55:06;;;;;;;;;;;;;;;7.34;48.12;102306.88;6194790;23;20245;-85
2023/01/20 18:57:31;;;;;;;;;;;;;;;7.36;48.11;102312.84;6195107;23;19907;-85
2023/01/20 18:59:57;;;;;;;;;;;;;;;7.36;48.28;102316.38;6191630;23;20390;-84
2023/01/20 19:02:22;;;;;;;;;;;;;;;7.35;47.78;102322.69;6190106;23;19912;-84
2023/01/20 19:04:48;;;;;;;;;;;;;;;7.32;47.92;102325.75;6161007;23;19908;-83
2023/01/20 19:07:13;;;;;;;;;;;;;;;7.35;48.10;102332.53;6184427;23;19915;-84
2023/01/20 19:09:38;;;;;;;;;;;;;;;7.36;48.17;102337.72;6182447;23;19916;-84
2023/01/20 19:12:05;;;;;;;;;;;;;;;7.34;48.06;102339.72;6155416;23;20244;-84
2023/01/20 19:14:30;;;;;;;;;;;;;;;7.35;48.37;102338.69;6182418;23;19975;-84
2023/01/20 19:16:56;;;;;;;;;;;;;;;7.34;47.96;102342.38;6182135;23;19916;-84
2023/01/20 19:19:21;;;;;;;;;;;;;;;7.30;47.78;102343.75;6181440;23;19915;-84
2023/01/20 19:21:50;;;;;;;;;;;;;;;7.24;47.92;102347.19;6181140;23;19916;-84
2023/01/20 19:24:18;;;;;;;;;;;;;;;7.20;47.95;102345.91;6180971;23;19916;-84
2023/01/20 19:26:46;;;;;;;;;;;;;;;7.20;47.92;102354.75;6155190;23;20332;-84
2023/01/20 19:29:14;;;;;;;;;;;;;;;7.20;48.09;102353.91;6180933;23;19908;-84
2023/01/20 19:31:40;;;;;;;;;;;;;;;7.18;48.06;102350.59;6181273;23;19915;-84
2023/01/20 19:34:06;;;;;;;;;;;;;;;7.16;48.14;102350.78;6183695;23;19975;-84
2023/01/20 19:36:32;;;;;;;;;;;;;;;7.16;48.01;102352.59;6157685;23;19931;-84
2023/01/20 19:38:57;;;;;;;;;;;;;;;7.15;47.82;102343.78;6184178;23;20320;-84
2023/01/20 19:41:26;;;;;;;;;;;;;;;7.15;48.03;102354.44;6184011;23;19912;-84
2023/01/20 19:43:56;;;;;;;;;;;;;;;7.11;48.05;102361.16;6183678;23;19918;-84
2023/01/20 19:46:23;;;;;;;;;;;;;;;7.03;47.82;102352.47;6183901;23;20240;-84
2023/01/20 19:48:48;;;;;;;;;;;;;;;7.00;48.35;102356.31;6182029;23;19916;-84
2023/01/20 19:51:14;;;;;;;;;;;;;;;7.01;48.17;102357.16;6183923;23;19912;-84
2023/01/20 19:53:40;;;;;;;;;;;;;;;7.01;48.07;102368.66;6183371;23;19931;-84
2023/01/20 19:56:08;;;;;;;;;;;;;;;7.04;48.28;102370.09;6183593;23;19987;-84
2023/01/20 19:58:34;;;;;;;;;;;;;;;7.06;48.04;102376.06;6183631;23;19908;-84
2023/01/20 20:01:15;;;;;;;;;;;;;;;7.07;48.00;102378.56;6183921;23;19908;-84
2023/01/20 20:03:44;;;;;;;;;;;;;;;7.08;48.19;102387.38;6183353;23;19912;-84
2023/01/20 20:06:28;;;;;;;;;;;;;;;7.09;48.02;102381.03;6182909;23;20347;-84
2023/01/20 20:08:58;;;;;;;;;;;;;;;7.06;47.86;102382.22;6183364;23;19954;-83
2023/01/20 20:11:32;;;;;;;;;;;;;;;7.03;47.86;102382.59;6183583;23;19908;-84
2023/01/20 20:14:02;;;;;;;;;;;;;;;7.00;47.82;102384.78;6185029;23;19983;-84
2023/01/20 20:16:35;;;;;;;;;;;;;;;6.99;48.15;102383.97;6183105;23;19915;-84
2023/01/20 20:19:01;;;;;;;;;;;;;;;7.00;47.83;102382.94;6183259;23;19908;-84
2023/01/20 20:21:32;;;;;;;;;;;;;;;7.02;47.89;102393.47;6184599;23;20346;-84
2023/01/20 20:23:59;;;;;;;;;;;;;;;7.03;48.07;102395.09;6184679;23;19926;-84
2023/01/20 20:26:33;;;;;;;;;;;;;;;7.02;47.94;102391.63;6186082;23;20364;-84
2023/01/20 20:29:00;;;;;;;;;;;;;;;7.01;48.09;102392.63;6185456;23;19908;-84
2023/01/20 20:31:31;;;;;;;;;;;;;;;7.03;47.97;102398.59;6186290;23;19932;-84
2023/01/20 20:34:04;;;;;;;;;;;;;;;7.05;48.33;102403.75;6188190;23;20249;-83
2023/01/20 20:36:31;;;;;;;;;;;;;;;7.04;47.83;102407.41;6159341;23;20244;-84
2023/01/20 20:39:03;;;;;;;;;;;;;;;7.01;47.91;102399.81;6187952;23;19942;-84
2023/01/20 20:41:30;;;;;;;;;;;;;;;7.00;47.98;102398.13;6187144;23;20391;-83
2023/01/20 20:44:12;;;;;;;;;;;;;;;7.01;48.19;102399.81;6187743;23;19936;-83
2023/01/20 20:46:37;;;;;;;;;;;;;;;7.01;47.97;102405.13;6162013;23;19943;-84
2023/01/20 20:49:11;;;;;;;;;;;;;;;7.03;47.94;102411.09;6188716;23;19919;-83
2023/01/20 20:51:47;;;;;;;;;;;;;;;7.01;47.76;102416.63;6196658;23;19912;-84
2023/01/20 20:54:15;;;;;;;;;;;;;;;7.00;47.94;102422.91;6198131;23;19908;-84
2023/01/20 20:56:41;;;;;;;;;;;;;;;7.02;48.02;102420.09;6200676;23;19912;-84
2023/01/20 20:59:09;;;;;;;;;;;;;;;7.03;48.38;102424.41;6199694;23;19922;-84
2023/01/20 21:04:23;;;;;;;;;;;;;;;7.05;47.93;102428.56;6180674;23;20225;-84
2023/01/20 21:06:49;;;;;;;;;;;;;;;7.05;48.30;102425.06;6199662;23;19908;-84
2023/01/20 21:09:15;;;;;;;;;;;;;;;7.03;47.97;102433.25;6167593;23;19939;-84
2023/01/20 21:11:43;;;;;;;;;;;;;;;7.04;48.12;102436.72;6202259;23;19951;-84
2023/01/20 21:14:20;;;;;;;;;;;;;;;7.07;47.89;102433.69;6200917;23;19913;-84
2023/01/20 21:16:45;;;;;;;;;;;;;;;7.07;48.06;102437.19;6200743;23;19912;-84
2023/01/20 21:19:17;;;;;;;;;;;;;;;7.09;48.25;102445.00;6198268;23;19955;-84
2023/01/20 21:21:45;;;;;;;;;;;;;;;7.09;48.28;102451.16;6198638;23;19912;-84
2023/01/20 21:24:15;;;;;;;;;;;;;;;7.09;47.89;102448.50;6201331;23;19978;-84
2023/01/20 21:26:41;;;;;;;;;;;;;;;7.12;47.88;102452.63;6198549;23;19927;-84
2023/01/20 21:29:09;;;;;;;;;;;;;;;7.14;47.94;102459.44;6194463;23;19912;-84
2023/01/20 21:31:34;;;;;;;;;;;;;;;7.15;48.11;102471.75;6187602;23;19912;-84
2023/01/20 21:34:02;;;;;;;;;;;;;;;7.15;48.24;102478.91;6185071;23;19908;-84
2023/01/20 21:36:40;;;;;;;;;;;;;;;;;;;;;
2023/01/20 21:39:13;;;;;;;;;;;;;;;7.16;47.94;102478.72;6161754;23;20160;-84
2023/01/20 21:41:39;;;;;;;;;;;;;;;7.18;47.99;102475.88;6183074;23;19914;-84
2023/01/20 21:44:35;;;;;;;;;;;;;;;7.18;48.29;102470.53;6182296;23;20215;-84
2023/01/20 21:47:06;;;;;;;;;;;;;;;7.15;47.95;102482.41;6182642;23;19912;-84
2023/01/20 21:55:09;;;;;;;;;;;;;;;7.20;48.02;102500.53;6183993;23;20371;-84
2023/01/20 21:57:38;;;;;;;;;;;;;;;7.22;48.13;102507.34;6182482;23;19919;-84
2023/01/20 22:00:07;;;;;;;;;;;;;;;7.22;47.70;102504.66;6182269;23;19936;-83
2023/01/20 22:02:43;;;;;;;;;;;;;;;;;;;;;
2023/01/20 22:05:13;;;;;;;;;;;;;;;7.15;47.88;102506.38;6173009;23;19995;-84
2023/01/20 22:07:38;;;;;;;;;;;;;;;7.13;47.96;102508.41;6182141;23;19912;-84
2023/01/20 22:10:04;;;;;;;;;;;;;;;7.13;47.92;102515.59;6181900;23;19975;-85
2023/01/20 22:12:33;;;;;;;;;;;;;;;7.12;48.09;102516.59;6155907;23;20213;-85
2023/01/20 22:15:07;;;;;;;;;;;;;;;7.12;47.90;102521.94;6182717;23;20217;-85
2023/01/20 22:17:35;;;;;;;;;;;;;;;7.09;47.82;102519.63;6182714;23;19918;-85
2023/01/20 22:20:08;;;;;;;;;;;;;;;7.06;47.85;102514.66;6181876;23;20137;-85
2023/01/20 22:22:33;;;;;;;;;;;;;;;7.06;47.90;102517.34;6181047;23;20333;-85
2023/01/20 22:25:01;;;;;;;;;;;;;;;7.04;48.07;102516.69;6155178;23;19908;-85
2023/01/20 22:27:29;;;;;;;;;;;;;;;7.06;48.13;102512.00;6181345;23;19912;-85
2023/01/20 22:29:54;;;;;;;;;;;;;;;7.07;47.96;102521.66;6180505;23;19944;-84
2023/01/20 22:32:22;;;;;;;;;;;;;;;7.10;48.23;102524.78;6154063;23;20329;-85
2023/01/20 22:34:48;;;;;;;;;;;;;;;7.12;47.92;102527.25;6181728;23;19908;-85
2023/01/20 22:37:31;;;;;;;;;;;;;;;7.14;47.98;102538.56;6176916;23;19919;-86
2023/01/20 22:39:57;;;;;;;;;;;;;;;7.13;47.97;102536.91;6174980;23;19920;-87
2023/01/20 22:42:32;;;;;;;;;;;;;;;;;;;;;
2023/01/20 22:45:07;;;;;;;;;;;;;;;7.13;48.16;102532.41;6153466;23;19914;-86
2023/01/20 22:47:32;;;;;;;;;;;;;;;7.14;47.91;102534.06;6174986;23;19940;-86
2023/01/20 22:49:57;;;;;;;;;;;;;;;7.13;47.94;102534.25;6178807;23;19915;-86
2023/01/20 22:52:29;;;;;;;;;;;;;;;7.12;48.38;102545.91;6179970;23;19909;-86
2023/01/20 22:54:54;;;;;;;;;;;;;;;7.12;48.23;102533.41;6179606;23;19950;-86
2023/01/20 22:57:20;;;;;;;;;;;;;;;7.12;48.45;102527.25;6181432;22;19908;-84
2023/01/20 22:59:45;;;;;;;;;;;;;;;7.13;48.04;102526.25;6207158;23;20263;-84
2023/01/20 23:02:10;;;;;;;;;;;;;;;7.13;48.12;102535.06;6208836;23;19950;-84
2023/01/20 23:04:36;;;;;;;;;;;;;;;7.14;48.08;102535.91;6209501;23;19916;-84
2023/01/20 23:07:01;;;;;;;;;;;;;;;7.15;48.33;102545.56;6208548;23;19911;-84
2023/01/20 23:09:27;;;;;;;;;;;;;;;7.15;48.49;102549.03;6210436;23;19930;-83
2023/01/20 23:11:52;;;;;;;;;;;;;;;7.16;48.07;102553.38;6212013;23;20287;-84
2023/01/20 23:14:57;;;;;;;;;;;;;;;7.17;48.39;102552.34;6209854;23;19916;-84
2023/01/20 23:17:03;;;;;;;;;;;;;;;7.16;48.00;102547.22;6210526;23;19915;-84
2023/01/20 23:19:28;;;;;;;;;;;;;;;7.17;48.28;102548.84;6209671;23;20310;-84
2023/01/20 23:21:53;;;;;;;;;;;;;;;7.16;48.08;102544.53;6211272;23;19915;-84
2023/01/20 23:24:19;;;;;;;;;;;;;;;7.16;48.33;102549.88;6211318;23;19908;-84
2023/01/20 23:26:44;;;;;;;;;;;;;;;7.13;48.03;102544.91;6183753;23;20011;-84
2023/01/20 23:29:09;;;;;;;;;;;;;;;7.12;48.08;102549.41;6207888;23;19911;-84
2023/01/20 23:31:35;;;;;;;;;;;;;;;7.12;48.56;102541.41;6208736;23;19981;-84
2023/01/20 23:34:00;;;;;;;;;;;;;;;7.10;48.03;102540.78;6211025;23;19915;-84
2023/01/20 23:36:25;;;;;;;;;;;;;;;7.06;48.16;102536.81;6211383;23;20339;-84
2023/01/20 23:38:54;;;;;;;;;;;;;;;7.08;48.47;102549.97;6210205;23;19912;-84
2023/01/20 23:41:20;;;;;;;;;;;;;;;7.09;48.20;102540.94;6209881;23;19912;-84
2023/01/20 23:43:45;;;;;;;;;;;;;;;7.09;48.53;102546.28;6210798;23;19907;-84
2023/01/20 23:46:11;;;;;;;;;;;;;;;7.11;48.62;102538.94;6209908;23;19915;-84
2023/01/20 23:48:36;;;;;;;;;;;;;;;7.15;48.22;102545.56;6210622;23;19936;-84
2023/01/20 23:51:02;;;;;;;;;;;;;;;7.17;48.22;102546.19;6210534;23;20272;-84
2023/01/20 23:53:29;;;;;;;;;;;;;;;7.19;48.61;102549.53;6210813;23;20323;-84
2023/01/20 23:56:02;;;;;;;;;;;;;;;7.20;48.09;102554.69;6210968;23;20323;-84
2023/01/20 23:58:28;;;;;;;;;;;;;;;7.20;48.23;102548.53;6209261;23;20332;-83
